Time;durP1;ratioP1;P1;durP2;ratioP2;P2;SDS_P1;SDS_P2;PMS_P1;PMS_P2;Temp;Humidity;BMP_temperature;BMP_pressure;BME280_temperature;BME280_humidity;BME280_pressure;Samples;Min_cycle;Max_cycle;Signal;HPM_P1;HPM_P2
2023/03/18 00:00:00;;;;;;;8.17;3.80;;;;;;;;;;5042020;28;20116;-61
2023/03/18 00:02:26;;;;;;;7.27;4.00;;;;;;;;;;5041699;28;20191;-61
2023/03/18 00:04:52;;;;;;;6.43;4.27;;;;;;;;;;5040485;28;20661;-61
2023/03/18 00:07:18;;;;;;;12.13;4.30;;;;;;;;;;5038550;28;20050;-61
2023/03/18 00:09:44;;;;;;;11.57;4.37;;;;;;;;;;5039543;28;20045;-61
2023/03/18 00:12:11;;;;;;;9.90;4.13;;;;;;;;;;5037998;28;20044;-61
2023/03/18 00:14:38;;;;;;;19.00;4.83;;;;;;;;;;5040778;28;20128;-61
2023/03/18 00:17:04;;;;;;;10.30;4.63;;;;;;;;;;5040531;28;20042;-60
2023/03/18 00:19:32;;;;;;;7.00;4.47;;;;;;;;;;5039400;28;20058;-60
2023/03/18 00:21:58;;;;;;;10.03;4.63;;;;;;;;;;5042554;28;20419;-61
2023/03/18 00:24:26;;;;;;;10.20;4.97;;;;;;;;;;5043557;28;20049;-61
2023/03/18 00:26:52;;;;;;;8.53;4.33;;;;;;;;;;5044934;28;20081;-61
2023/03/18 00:29:18;;;;;;;8.50;4.63;;;;;;;;;;5042522;28;20041;-61
2023/03/18 00:31:45;;;;;;;9.37;4.43;;;;;;;;;;5040906;28;20047;-61
2023/03/18 00:34:11;;;;;;;10.43;4.60;;;;;;;;;;5040842;28;20513;-61
2023/03/18 00:36:38;;;;;;;6.63;4.40;;;;;;;;;;5037036;28;20052;-60
2023/03/18 00:39:05;;;;;;;11.10;5.57;;;;;;;;;;5041496;28;20047;-61
2023/03/18 00:41:36;;;;;;;11.13;5.00;;;;;;;;;;5041922;28;20582;-61
2023/03/18 00:44:03;;;;;;;11.07;5.17;;;;;;;;;;5043247;28;20049;-61
2023/03/18 00:46:36;;;;;;;11.37;6.10;;;;;;;;;;5040721;28;20037;-61
2023/03/18 00:49:04;;;;;;;13.07;5.88;;;;;;;;;;5042392;28;20041;-60
2023/03/18 00:51:31;;;;;;;9.83;5.03;;;;;;;;;;5040918;28;20052;-61
2023/03/18 00:53:57;;;;;;;12.40;5.60;;;;;;;;;;5042125;28;20419;-61
2023/03/18 00:56:25;;;;;;;12.17;5.50;;;;;;;;;;5040805;28;20132;-61
2023/03/18 00:58:52;;;;;;;10.93;5.17;;;;;;;;;;5041151;28;20782;-61
2023/03/18 01:01:18;;;;;;;8.30;5.50;;;;;;;;;;5042997;28;20037;-61
2023/03/18 01:03:45;;;;;;;11.57;5.67;;;;;;;;;;5038678;28;20128;-60
2023/03/18 01:06:12;;;;;;;12.83;6.50;;;;;;;;;;5044290;28;20460;-61
2023/03/18 01:08:39;;;;;;;9.90;5.33;;;;;;;;;;5042966;28;20041;-61
2023/03/18 01:11:05;;;;;;;10.43;5.70;;;;;;;;;;5032964;28;20038;-61
2023/03/18 01:13:32;;;;;;;12.67;7.27;;;;;;;;;;5040691;28;20482;-60
2023/03/18 01:15:58;;;;;;;12.20;6.07;;;;;;;;;;5037732;28;20557;-61
2023/03/18 01:18:24;;;;;;;10.47;5.37;;;;;;;;;;5037026;28;20040;-61
2023/03/18 01:20:50;;;;;;;10.17;5.83;;;;;;;;;;5037884;28;21322;-60
2023/03/18 01:23:16;;;;;;;9.80;6.13;;;;;;;;;;5037836;28;20069;-61
2023/03/18 01:25:43;;;;;;;12.27;7.10;;;;;;;;;;5043335;28;20075;-61
2023/03/18 01:28:10;;;;;;;14.47;8.00;;;;;;;;;;5040753;28;20041;-60
2023/03/18 01:30:37;;;;;;;16.17;8.57;;;;;;;;;;5039207;28;20053;-61
2023/03/18 01:33:03;;;;;;;16.43;8.03;;;;;;;;;;5035846;28;20075;-60
2023/03/18 01:35:30;;;;;;;11.70;7.47;;;;;;;;;;5041434;28;20049;-60
2023/03/18 01:37:57;;;;;;;13.10;8.03;;;;;;;;;;5042049;28;20119;-61
2023/03/18 01:40:24;;;;;;;19.00;8.70;;;;;;;;;;5042743;28;20464;-61
2023/03/18 01:42:58;;;;;;;14.37;8.23;;;;;;;;;;5039745;28;20049;-61
2023/03/18 01:45:27;;;;;;;16.60;8.70;;;;;;;;;;5036552;28;20036;-61
2023/03/18 01:47:54;;;;;;;16.23;8.43;;;;;;;;;;5038230;28;20151;-61
2023/03/18 01:50:26;;;;;;;14.37;10.00;;;;;;;;;;5037086;28;20450;-61
2023/03/18 01:52:55;;;;;;;16.40;8.10;;;;;;;;;;5039025;28;20049;-60
2023/03/18 01:55:24;;;;;;;15.43;9.20;;;;;;;;;;5038160;28;20049;-61
2023/03/18 01:57:51;;;;;;;14.70;9.30;;;;;;;;;;5043255;28;20045;-60
2023/03/18 02:00:18;;;;;;;16.97;8.97;;;;;;;;;;5043914;28;20056;-60
2023/03/18 02:02:45;;;;;;;14.90;9.10;;;;;;;;;;5039693;28;20138;-61
2023/03/18 02:05:13;;;;;;;14.37;9.27;;;;;;;;;;5036672;28;20124;-61
2023/03/18 02:07:43;;;;;;;18.07;10.03;;;;;;;;;;5040934;28;20053;-61
2023/03/18 02:10:12;;;;;;;16.83;9.73;;;;;;;;;;5036812;28;20049;-61
2023/03/18 02:12:39;;;;;;;18.03;10.10;;;;;;;;;;5036297;28;20056;-60
2023/03/18 02:15:09;;;;;;;18.23;10.90;;;;;;;;;;5039557;28;20132;-60
2023/03/18 02:17:38;;;;;;;17.80;12.43;;;;;;;;;;5037842;28;20040;-61
2023/03/18 02:20:23;;;;;;;19.70;12.03;;;;;;;;;;5037266;28;20063;-61
2023/03/18 02:22:52;;;;;;;19.10;11.93;;;;;;;;;;5039458;28;20522;-61
2023/03/18 02:25:46;;;;;;;18.73;12.23;;;;;;;;;;5037892;28;20055;-62
2023/03/18 02:28:14;;;;;;;17.70;12.57;;;;;;;;;;5040111;28;20045;-59
2023/03/18 02:30:43;;;;;;;21.20;14.30;;;;;;;;;;5037848;28;20059;-60
2023/03/18 02:33:10;;;;;;;19.80;13.93;;;;;;;;;;5039737;28;20052;-60
2023/03/18 02:35:36;;;;;;;19.10;13.50;;;;;;;;;;5038560;28;20423;-59
2023/03/18 02:38:03;;;;;;;22.30;14.47;;;;;;;;;;5041866;28;20415;-60
2023/03/18 02:40:37;;;;;;;23.63;16.03;;;;;;;;;;5038355;28;20041;-60
2023/03/18 02:43:24;;;;;;;23.77;15.17;;;;;;;;;;5039425;28;20041;-60
2023/03/18 02:46:00;;;;;;;21.17;15.07;;;;;;;;;;5038043;28;20042;-59
2023/03/18 02:48:28;;;;;;;27.53;16.57;;;;;;;;;;5037449;28;20151;-60
2023/03/18 02:50:55;;;;;;;27.30;16.60;;;;;;;;;;5042617;28;20045;-60
2023/03/18 02:53:21;;;;;;;23.00;15.77;;;;;;;;;;5038165;28;20223;-60
2023/03/18 02:55:47;;;;;;;20.97;14.60;;;;;;;;;;5037055;28;20079;-60
2023/03/18 02:58:13;;;;;;;29.00;15.47;;;;;;;;;;5039177;28;20448;-60
2023/03/18 03:00:39;;;;;;;23.90;16.30;;;;;;;;;;5035893;28;20048;-60
2023/03/18 03:03:06;;;;;;;23.80;15.73;;;;;;;;;;5040102;28;20431;-60
2023/03/18 03:05:33;;;;;;;22.97;16.83;;;;;;;;;;5037512;28;20072;-59
2023/03/18 03:07:59;;;;;;;23.47;16.97;;;;;;;;;;5038864;28;20041;-60
2023/03/18 03:10:26;;;;;;;26.60;17.67;;;;;;;;;;5034285;28;20120;-60
2023/03/18 03:12:52;;;;;;;30.23;17.77;;;;;;;;;;5038532;28;20100;-60
2023/03/18 03:15:19;;;;;;;26.73;17.87;;;;;;;;;;5041817;28;20048;-60
2023/03/18 03:17:47;;;;;;;27.33;18.43;;;;;;;;;;5040699;28;20049;-60
2023/03/18 03:20:14;;;;;;;26.60;18.23;;;;;;;;;;5041427;28;20047;-60
2023/03/18 03:22:40;;;;;;;27.73;18.23;;;;;;;;;;5043848;28;20053;-60
2023/03/18 03:25:07;;;;;;;29.27;18.87;;;;;;;;;;5043572;28;20037;-59
2023/03/18 03:27:33;;;;;;;28.80;19.67;;;;;;;;;;5041242;28;20099;-60
2023/03/18 03:29:59;;;;;;;27.50;19.30;;;;;;;;;;5042612;28;20076;-60
2023/03/18 03:32:26;;;;;;;29.17;20.93;;;;;;;;;;5039974;28;20046;-60
2023/03/18 03:34:52;;;;;;;31.50;22.10;;;;;;;;;;5050575;28;20099;-60
2023/03/18 03:37:18;;;;;;;28.33;21.17;;;;;;;;;;5046995;28;20072;-61
2023/03/18 03:39:44;;;;;;;27.43;20.83;;;;;;;;;;5032327;28;20714;-60
2023/03/18 03:42:10;;;;;;;26.33;20.17;;;;;;;;;;5032202;28;20822;-60
2023/03/18 03:44:36;;;;;;;32.27;22.47;;;;;;;;;;5048934;28;20095;-60
2023/03/18 03:47:02;;;;;;;30.63;23.03;;;;;;;;;;5051695;28;20085;-60
2023/03/18 03:49:28;;;;;;;29.90;21.60;;;;;;;;;;5051882;28;20124;-61
2023/03/18 03:51:55;;;;;;;29.17;22.03;;;;;;;;;;5051430;28;20120;-60
2023/03/18 03:54:24;;;;;;;31.13;21.70;;;;;;;;;;5051495;28;20415;-60
2023/03/18 03:56:50;;;;;;;31.53;22.63;;;;;;;;;;5050472;28;20060;-60
2023/03/18 03:59:16;;;;;;;32.60;22.37;;;;;;;;;;5051641;28;20036;-60
2023/03/18 04:01:43;;;;;;;33.17;22.33;;;;;;;;;;5051422;28;20048;-60
2023/03/18 04:04:09;;;;;;;32.60;21.77;;;;;;;;;;5051537;28;20102;-60
2023/03/18 04:06:35;;;;;;;27.90;20.77;;;;;;;;;;5051649;28;20048;-60
2023/03/18 04:09:02;;;;;;;27.80;19.40;;;;;;;;;;5051733;28;20131;-60
2023/03/18 04:11:28;;;;;;;27.73;19.93;;;;;;;;;;5051087;28;20563;-60
2023/03/18 04:13:54;;;;;;;27.37;18.87;;;;;;;;;;5051450;28;20090;-60
2023/03/18 04:16:20;;;;;;;25.53;18.57;;;;;;;;;;5051547;28;20419;-60
2023/03/18 04:18:47;;;;;;;25.40;17.83;;;;;;;;;;5051788;28;20609;-60
2023/03/18 04:21:13;;;;;;;23.20;17.70;;;;;;;;;;5051513;28;20139;-60
2023/03/18 04:23:39;;;;;;;25.53;17.23;;;;;;;;;;5050027;28;20088;-60
2023/03/18 04:26:05;;;;;;;25.23;16.63;;;;;;;;;;5050147;28;20044;-60
2023/03/18 04:28:32;;;;;;;26.27;17.70;;;;;;;;;;5051134;28;20059;-60
2023/03/18 04:30:58;;;;;;;27.13;16.50;;;;;;;;;;5050626;28;20150;-61
2023/03/18 04:33:24;;;;;;;28.23;16.20;;;;;;;;;;5051481;28;20052;-61
2023/03/18 04:35:51;;;;;;;24.53;16.57;;;;;;;;;;5051146;28;20052;-60
2023/03/18 04:38:18;;;;;;;23.47;16.30;;;;;;;;;;5051320;28;20053;-60
2023/03/18 04:40:44;;;;;;;23.87;15.07;;;;;;;;;;5050110;28;20116;-60
2023/03/18 04:43:10;;;;;;;23.27;16.20;;;;;;;;;;5050941;28;20037;-60
2023/03/18 04:45:36;;;;;;;27.37;17.00;;;;;;;;;;5050299;28;20048;-60
2023/03/18 04:48:03;;;;;;;23.53;16.40;;;;;;;;;;5051054;28;20099;-60
2023/03/18 04:50:29;;;;;;;24.13;16.23;;;;;;;;;;5050559;28;20053;-60
2023/03/18 04:52:55;;;;;;;19.47;15.10;;;;;;;;;;5050970;28;20044;-60
2023/03/18 04:55:21;;;;;;;24.00;15.57;;;;;;;;;;5050043;28;20049;-60
2023/03/18 04:57:49;;;;;;;22.10;15.53;;;;;;;;;;5050393;28;20422;-61
2023/03/18 05:00:16;;;;;;;26.17;16.60;;;;;;;;;;5050857;28;20502;-61
2023/03/18 05:02:44;;;;;;;23.87;17.17;;;;;;;;;;5050143;28;20033;-62
2023/03/18 05:05:10;;;;;;;24.73;15.77;;;;;;;;;;5049868;28;20124;-61
2023/03/18 05:07:36;;;;;;;24.87;16.37;;;;;;;;;;5050232;28;20074;-61
2023/03/18 05:10:05;;;;;;;27.33;17.00;;;;;;;;;;5050556;28;20053;-61
2023/03/18 05:12:31;;;;;;;24.93;16.20;;;;;;;;;;5050336;28;20679;-61
2023/03/18 05:14:57;;;;;;;23.30;16.20;;;;;;;;;;5049364;28;20414;-61
2023/03/18 05:17:24;;;;;;;25.53;17.43;;;;;;;;;;5048919;28;20491;-61
2023/03/18 05:19:50;;;;;;;25.00;15.47;;;;;;;;;;5049791;28;20057;-61
2023/03/18 05:22:17;;;;;;;24.20;16.43;;;;;;;;;;5050321;28;20467;-61
2023/03/18 05:24:44;;;;;;;25.97;16.23;;;;;;;;;;5050252;28;20048;-61
2023/03/18 05:27:11;;;;;;;25.43;17.67;;;;;;;;;;5049758;28;20056;-61
2023/03/18 05:29:39;;;;;;;23.87;17.20;;;;;;;;;;5048442;28;20139;-61
2023/03/18 05:32:08;;;;;;;26.10;16.57;;;;;;;;;;5049945;28;20150;-61
2023/03/18 05:34:36;;;;;;;23.90;17.00;;;;;;;;;;5049560;28;20045;-61
2023/03/18 05:37:03;;;;;;;25.53;16.40;;;;;;;;;;5049385;28;20465;-61
2023/03/18 05:39:30;;;;;;;21.27;16.00;;;;;;;;;;5049067;28;20045;-61
2023/03/18 05:41:56;;;;;;;24.63;16.40;;;;;;;;;;5049746;28;20077;-61
2023/03/18 05:44:22;;;;;;;19.87;14.93;;;;;;;;;;5049847;28;20041;-61
2023/03/18 05:46:51;;;;;;;29.00;17.00;;;;;;;;;;5049886;28;20491;-61
2023/03/18 05:49:17;;;;;;;24.87;17.07;;;;;;;;;;5050044;28;20580;-63
2023/03/18 05:51:43;;;;;;;22.90;15.97;;;;;;;;;;5048831;28;20045;-61
2023/03/18 05:54:10;;;;;;;25.87;15.90;;;;;;;;;;5049554;28;20060;-61
2023/03/18 05:56:36;;;;;;;25.50;16.97;;;;;;;;;;5049584;28;20124;-61
2023/03/18 05:59:02;;;;;;;24.03;16.10;;;;;;;;;;5049375;28;20048;-61
2023/03/18 06:01:30;;;;;;;19.27;15.53;;;;;;;;;;5049299;28;20039;-61
2023/03/18 06:03:56;;;;;;;25.17;16.50;;;;;;;;;;5049725;28;20091;-61
2023/03/18 06:06:22;;;;;;;24.43;17.20;;;;;;;;;;5049521;28;20080;-62
2023/03/18 06:08:48;;;;;;;24.33;17.10;;;;;;;;;;5048964;28;20478;-62
2023/03/18 06:11:14;;;;;;;29.07;18.87;;;;;;;;;;5048015;28;20041;-61
2023/03/18 06:13:40;;;;;;;27.67;18.77;;;;;;;;;;5048350;28;20049;-61
2023/03/18 06:16:07;;;;;;;25.57;17.80;;;;;;;;;;5049359;28;20045;-61
2023/03/18 06:18:34;;;;;;;28.00;17.30;;;;;;;;;;5048654;28;20499;-61
2023/03/18 06:21:00;;;;;;;28.93;17.20;;;;;;;;;;5048791;28;20075;-62
2023/03/18 06:23:26;;;;;;;22.87;16.73;;;;;;;;;;5049307;28;20091;-61
2023/03/18 06:25:52;;;;;;;26.37;16.73;;;;;;;;;;5048998;28;20052;-62
2023/03/18 06:28:19;;;;;;;29.17;16.83;;;;;;;;;;5047081;28;20572;-61
2023/03/18 06:30:45;;;;;;;24.40;17.87;;;;;;;;;;5047698;28;20045;-61
2023/03/18 06:33:11;;;;;;;25.40;17.10;;;;;;;;;;5048290;28;20060;-61
2023/03/18 06:35:38;;;;;;;25.90;15.83;;;;;;;;;;5048944;28;20045;-61
2023/03/18 06:38:04;;;;;;;25.10;16.57;;;;;;;;;;5049126;28;20414;-61
2023/03/18 06:40:30;;;;;;;23.77;16.53;;;;;;;;;;5047825;28;20533;-61
2023/03/18 06:42:57;;;;;;;26.80;17.07;;;;;;;;;;5048679;28;20095;-61
2023/03/18 06:45:24;;;;;;;23.83;15.90;;;;;;;;;;5048417;28;20404;-61
2023/03/18 06:47:50;;;;;;;26.70;15.50;;;;;;;;;;5048331;28;20499;-61
2023/03/18 06:50:16;;;;;;;25.57;14.73;;;;;;;;;;5048617;28;20337;-61
2023/03/18 06:52:42;;;;;;;21.77;14.23;;;;;;;;;;5048096;28;20072;-61
2023/03/18 06:55:09;;;;;;;18.73;14.73;;;;;;;;;;5048495;28;20044;-61
2023/03/18 06:57:35;;;;;;;21.03;13.77;;;;;;;;;;5048621;28;20403;-61
2023/03/18 07:00:01;;;;;;;21.07;13.80;;;;;;;;;;5044470;28;20080;-61
2023/03/18 07:02:27;;;;;;;22.30;13.63;;;;;;;;;;5035945;28;20046;-61
2023/03/18 07:04:54;;;;;;;21.03;14.97;;;;;;;;;;5037343;28;20112;-61
2023/03/18 07:07:21;;;;;;;23.07;14.57;;;;;;;;;;5040201;28;20076;-61
2023/03/18 07:09:47;;;;;;;24.50;14.93;;;;;;;;;;5035756;28;20042;-61
2023/03/18 07:12:13;;;;;;;24.00;14.53;;;;;;;;;;5040332;28;20041;-61
2023/03/18 07:14:40;;;;;;;30.30;17.77;;;;;;;;;;5041010;28;20053;-61
2023/03/18 07:17:07;;;;;;;29.13;19.50;;;;;;;;;;5044585;28;20412;-60
2023/03/18 07:19:33;;;;;;;32.63;21.53;;;;;;;;;;5048547;28;20049;-61
2023/03/18 07:22:01;;;;;;;37.13;23.90;;;;;;;;;;5047011;28;20040;-62
2023/03/18 07:24:27;;;;;;;45.07;25.87;;;;;;;;;;5046665;28;20048;-62
2023/03/18 07:26:54;;;;;;;45.73;28.20;;;;;;;;;;5048286;28;20474;-63
2023/03/18 07:29:29;;;;;;;55.53;31.73;;;;;;;;;;5044625;28;20045;-61
2023/03/18 07:31:56;;;;;;;50.23;28.93;;;;;;;;;;5047083;28;20048;-61
2023/03/18 07:34:23;;;;;;;41.63;25.67;;;;;;;;;;5054506;28;20083;-60
2023/03/18 07:36:49;;;;;;;47.63;28.87;;;;;;;;;;5040380;28;20064;-60
2023/03/18 07:39:15;;;;;;;43.67;27.70;;;;;;;;;;5037047;28;20127;-60
2023/03/18 07:41:41;;;;;;;44.60;27.87;;;;;;;;;;5038491;28;20580;-61
2023/03/18 07:44:07;;;;;;;55.63;32.73;;;;;;;;;;5039693;28;20042;-60
2023/03/18 07:46:33;;;;;;;50.40;28.13;;;;;;;;;;5037126;28;20037;-60
2023/03/18 07:49:00;;;;;;;49.50;29.63;;;;;;;;;;5031310;28;20104;-60
2023/03/18 07:51:26;;;;;;;45.83;28.20;;;;;;;;;;5037781;28;20117;-61
2023/03/18 07:53:52;;;;;;;46.50;27.23;;;;;;;;;;5031932;28;20049;-61
2023/03/18 07:56:19;;;;;;;57.13;31.67;;;;;;;;;;5035516;28;20060;-61
2023/03/18 07:58:45;;;;;;;58.43;32.40;;;;;;;;;;5037295;28;20064;-61
2023/03/18 08:01:14;;;;;;;41.17;26.57;;;;;;;;;;5043626;28;20573;-61
2023/03/18 08:03:40;;;;;;;41.90;27.67;;;;;;;;;;5047252;28;20072;-61
2023/03/18 08:06:06;;;;;;;41.10;26.03;;;;;;;;;;5037890;28;20471;-61
2023/03/18 08:08:33;;;;;;;39.27;23.90;;;;;;;;;;5042855;28;20053;-61
2023/03/18 08:11:01;;;;;;;41.33;24.63;;;;;;;;;;5037573;28;20053;-61
2023/03/18 08:13:27;;;;;;;46.67;27.20;;;;;;;;;;5038517;28;20053;-61
2023/03/18 08:15:54;;;;;;;46.30;25.77;;;;;;;;;;5038416;28;20037;-61
2023/03/18 08:18:21;;;;;;;43.00;25.97;;;;;;;;;;5036089;28;20073;-61
2023/03/18 08:20:47;;;;;;;44.03;27.67;;;;;;;;;;5035325;28;20083;-61
2023/03/18 08:23:13;;;;;;;40.37;25.83;;;;;;;;;;5040371;28;20041;-61
2023/03/18 08:25:40;;;;;;;45.67;24.73;;;;;;;;;;5044874;28;20048;-61
2023/03/18 08:28:06;;;;;;;41.83;25.23;;;;;;;;;;5041004;28;20633;-61
2023/03/18 08:30:33;;;;;;;43.40;26.23;;;;;;;;;;5044358;28;20487;-61
2023/03/18 08:32:59;;;;;;;35.87;23.77;;;;;;;;;;5048918;28;20056;-61
2023/03/18 08:35:25;;;;;;;37.87;25.93;;;;;;;;;;5050512;28;20538;-61
2023/03/18 08:37:51;;;;;;;40.00;24.50;;;;;;;;;;5050867;28;20045;-60
2023/03/18 08:40:18;;;;;;;42.30;23.83;;;;;;;;;;5042637;28;20679;-61
2023/03/18 08:42:45;;;;;;;31.30;21.53;;;;;;;;;;5039908;28;20052;-61
2023/03/18 08:45:12;;;;;;;34.77;21.50;;;;;;;;;;5050092;28;20049;-61
2023/03/18 08:47:38;;;;;;;32.97;20.43;;;;;;;;;;5041097;28;20104;-61
2023/03/18 08:50:05;;;;;;;31.60;20.77;;;;;;;;;;5040314;28;20077;-61
2023/03/18 08:52:31;;;;;;;35.40;21.57;;;;;;;;;;5040775;28;20116;-61
2023/03/18 08:54:57;;;;;;;29.47;19.43;;;;;;;;;;5038959;28;20037;-61
2023/03/18 08:57:25;;;;;;;34.20;23.30;;;;;;;;;;5040784;28;20133;-61
2023/03/18 08:59:52;;;;;;;29.90;20.87;;;;;;;;;;5038237;28;20488;-61
2023/03/18 09:02:18;;;;;;;25.57;18.43;;;;;;;;;;5034994;28;20042;-61
2023/03/18 09:04:44;;;;;;;27.40;17.33;;;;;;;;;;5036650;28;20073;-61
2023/03/18 09:07:11;;;;;;;26.30;17.83;;;;;;;;;;5045664;28;20044;-61
2023/03/18 09:09:38;;;;;;;28.67;18.90;;;;;;;;;;5041300;28;20053;-61
2023/03/18 09:12:05;;;;;;;28.87;19.67;;;;;;;;;;5039340;28;20503;-61
2023/03/18 09:14:31;;;;;;;30.83;21.67;;;;;;;;;;5041023;28;20041;-61
2023/03/18 09:17:00;;;;;;;28.23;21.33;;;;;;;;;;5038954;28;20091;-61
2023/03/18 09:19:27;;;;;;;32.40;21.00;;;;;;;;;;5039995;28;20782;-61
2023/03/18 09:21:53;;;;;;;28.77;20.40;;;;;;;;;;5038239;28;20049;-61
2023/03/18 09:24:19;;;;;;;26.30;20.77;;;;;;;;;;5038661;28;20037;-61
2023/03/18 09:26:46;;;;;;;28.23;20.47;;;;;;;;;;5039350;28;20533;-61
2023/03/18 09:29:12;;;;;;;23.53;19.40;;;;;;;;;;5035397;28;20054;-61
2023/03/18 09:31:39;;;;;;;22.47;18.20;;;;;;;;;;5036362;28;20075;-61
2023/03/18 09:34:08;;;;;;;24.33;18.53;;;;;;;;;;5045962;28;20048;-61
2023/03/18 09:36:34;;;;;;;27.77;18.37;;;;;;;;;;5040865;28;20411;-61
2023/03/18 09:39:00;;;;;;;23.67;18.17;;;;;;;;;;5037481;28;20094;-61
2023/03/18 09:41:45;;;;;;;25.23;18.63;;;;;;;;;;5033530;28;20048;-61
2023/03/18 09:44:16;;;;;;;22.83;16.93;;;;;;;;;;5038386;28;20045;-61
2023/03/18 09:46:52;;;;;;;24.13;17.23;;;;;;;;;;5032704;28;20049;-62
2023/03/18 09:49:27;;;;;;;23.20;17.67;;;;;;;;;;5035184;28;20050;-62
2023/03/18 09:51:53;;;;;;;19.70;16.23;;;;;;;;;;5034805;28;20037;-62
2023/03/18 09:54:27;;;;;;;23.50;16.03;;;;;;;;;;5039207;28;20124;-62
2023/03/18 09:56:53;;;;;;;18.23;14.83;;;;;;;;;;5033053;28;20041;-61
2023/03/18 09:59:21;;;;;;;16.03;13.67;;;;;;;;;;5035404;28;20412;-62
2023/03/18 10:01:50;;;;;;;22.77;13.60;;;;;;;;;;5032810;28;20045;-62
2023/03/18 10:04:24;;;;;;;15.70;14.00;;;;;;;;;;5039825;28;20033;-59
2023/03/18 10:06:53;;;;;;;14.60;12.97;;;;;;;;;;5043751;28;20045;-60
2023/03/18 10:09:39;;;;;;;15.27;13.30;;;;;;;;;;5036504;28;20116;-60
2023/03/18 10:12:26;;;;;;;16.57;13.10;;;;;;;;;;5034857;28;20067;-60
2023/03/18 10:15:07;;;;;;;13.73;11.93;;;;;;;;;;5038116;28;20049;-62
2023/03/18 10:17:42;;;;;;;14.10;11.43;;;;;;;;;;5042451;28;20123;-61
2023/03/18 10:20:19;;;;;;;16.70;11.93;;;;;;;;;;5042711;28;20491;-62
2023/03/18 10:22:47;;;;;;;13.97;11.13;;;;;;;;;;5034806;28;20040;-62
2023/03/18 10:25:13;;;;;;;13.80;10.60;;;;;;;;;;5031381;28;20049;-61
2023/03/18 10:28:03;;;;;;;14.77;10.27;;;;;;;;;;5043424;28;20064;-61
2023/03/18 10:30:53;;;;;;;14.33;10.17;;;;;;;;;;5040492;28;20495;-61
2023/03/18 10:33:25;;;;;;;15.50;9.53;;;;;;;;;;5031425;28;20045;-62
2023/03/18 10:35:59;;;;;;;13.33;9.20;;;;;;;;;;5040085;28;20055;-61
2023/03/18 10:38:31;;;;;;;10.63;8.77;;;;;;;;;;5035445;28;20049;-62
2023/03/18 10:40:58;;;;;;;11.50;8.03;;;;;;;;;;5036114;28;20045;-62
2023/03/18 10:43:27;;;;;;;12.50;7.80;;;;;;;;;;5035978;28;20083;-62
2023/03/18 10:45:59;;;;;;;13.63;8.97;;;;;;;;;;5035074;28;20049;-61
2023/03/18 10:48:37;;;;;;;12.00;8.40;;;;;;;;;;5028973;28;20047;-61
2023/03/18 10:51:13;;;;;;;12.20;8.20;;;;;;;;;;5028715;28;20049;-61
2023/03/18 10:53:57;;;;;;;10.53;8.23;;;;;;;;;;5028798;28;20050;-61
2023/03/18 10:56:24;;;;;;;10.73;8.87;;;;;;;;;;5028562;28;20089;-61
2023/03/18 10:58:51;;;;;;;13.43;9.03;;;;;;;;;;5029095;28;20037;-62
2023/03/18 11:01:18;;;;;;;12.03;8.37;;;;;;;;;;5036128;28;20054;-62
2023/03/18 11:03:47;;;;;;;15.50;8.43;;;;;;;;;;5032515;28;20049;-62
2023/03/18 11:06:24;;;;;;;11.17;8.70;;;;;;;;;;5043302;28;20056;-61
2023/03/18 11:08:59;;;;;;;9.83;7.13;;;;;;;;;;5028585;28;20053;-62
2023/03/18 11:11:27;;;;;;;10.27;7.97;;;;;;;;;;5042355;28;20049;-61
2023/03/18 11:13:55;;;;;;;11.37;7.97;;;;;;;;;;5041477;28;20045;-61
2023/03/18 11:16:28;;;;;;;13.10;8.47;;;;;;;;;;5043835;28;20044;-61
2023/03/18 11:18:54;;;;;;;;;;;;;;;;;;5046849;28;20052;-61
2023/03/18 11:21:20;;;;;;;13.03;9.33;;;;;;;;;;5037487;28;20368;-61
2023/03/18 11:24:19;;;;;;;14.23;10.37;;;;;;;;;;5037941;28;20049;-61
2023/03/18 11:26:53;;;;;;;13.80;9.87;;;;;;;;;;5039490;28;20403;-61
2023/03/18 11:29:23;;;;;;;11.03;8.67;;;;;;;;;;5036268;28;20044;-61
2023/03/18 11:31:56;;;;;;;12.10;8.77;;;;;;;;;;5040170;28;20510;-62
2023/03/18 11:34:23;;;;;;;9.83;8.73;;;;;;;;;;5040022;28;20048;-62
2023/03/18 11:36:59;;;;;;;12.97;8.10;;;;;;;;;;5043193;28;20053;-61
2023/03/18 11:39:27;;;;;;;11.33;8.27;;;;;;;;;;5046434;28;20053;-62
2023/03/18 11:41:53;;;;;;;9.50;7.67;;;;;;;;;;5040560;28;20053;-61
2023/03/18 11:44:25;;;;;;;9.30;7.80;;;;;;;;;;5040665;28;20049;-61
2023/03/18 11:46:55;;;;;;;9.80;6.90;;;;;;;;;;5043567;28;20118;-60
2023/03/18 11:49:22;;;;;;;8.93;6.80;;;;;;;;;;5052147;28;20037;-61
2023/03/18 11:51:48;;;;;;;12.60;7.23;;;;;;;;;;5047206;28;20037;-62
2023/03/18 11:54:33;;;;;;;9.40;8.30;;;;;;;;;;5050030;28;20055;-62
2023/03/18 11:57:01;;;;;;;10.17;7.73;;;;;;;;;;5051992;28;20056;-62
2023/03/18 11:59:46;;;;;;;10.17;7.60;;;;;;;;;;5051764;28;20048;-63
2023/03/18 12:02:25;;;;;;;12.17;8.23;;;;;;;;;;5051953;28;20041;-62
2023/03/18 12:05:18;;;;;;;9.93;8.97;;;;;;;;;;5051356;28;20151;-62
2023/03/18 12:07:50;;;;;;;11.87;8.63;;;;;;;;;;5041578;28;20120;-63
2023/03/18 12:10:36;;;;;;;9.80;8.17;;;;;;;;;;5031649;28;20041;-63
2023/03/18 12:13:02;;;;;;;11.63;8.93;;;;;;;;;;5031155;28;20056;-62
2023/03/18 12:15:47;;;;;;;11.47;9.67;;;;;;;;;;5031422;28;20053;-63
2023/03/18 12:18:22;;;;;;;13.33;9.33;;;;;;;;;;5031835;28;20091;-62
2023/03/18 12:21:18;;;;;;;9.83;8.07;;;;;;;;;;5031567;28;20057;-63
2023/03/18 12:23:56;;;;;;;9.80;7.70;;;;;;;;;;5028684;28;20067;-63
2023/03/18 12:26:22;;;;;;;11.27;7.57;;;;;;;;;;5030747;28;20092;-62
2023/03/18 12:29:03;;;;;;;10.40;7.23;;;;;;;;;;5031343;28;20057;-63
2023/03/18 12:31:35;;;;;;;9.10;7.40;;;;;;;;;;5030977;28;20049;-62
2023/03/18 12:34:02;;;;;;;12.50;8.00;;;;;;;;;;5030758;28;20054;-62
2023/03/18 12:36:34;;;;;;;14.43;8.90;;;;;;;;;;5030272;28;20045;-62
2023/03/18 12:39:06;;;;;;;11.25;8.50;;;;;;;;;;5029521;28;20141;-62
2023/03/18 12:41:35;;;;;;;11.73;8.60;;;;;;;;;;5028248;28;20045;-63
2023/03/18 12:44:22;;;;;;;11.83;8.80;;;;;;;;;;5028092;28;20053;-62
2023/03/18 12:46:51;;;;;;;12.57;8.57;;;;;;;;;;5027477;28;20042;-63
2023/03/18 12:49:35;;;;;;;10.70;8.13;;;;;;;;;;5027618;28;20050;-63
2023/03/18 12:52:13;;;;;;;9.87;7.40;;;;;;;;;;5027465;28;20049;-63
2023/03/18 12:54:43;;;;;;;9.47;6.00;;;;;;;;;;5027335;28;20053;-63
2023/03/18 12:57:29;;;;;;;7.77;5.50;;;;;;;;;;5028232;28;20049;-63
2023/03/18 13:00:01;;;;;;;6.57;4.97;;;;;;;;;;5029366;28;20100;-63
2023/03/18 13:02:36;;;;;;;8.37;6.00;;;;;;;;;;5030325;28;20049;-62
2023/03/18 13:05:05;;;;;;;9.30;5.87;;;;;;;;;;5040293;28;20307;-63
2023/03/18 13:07:39;;;;;;;8.27;6.07;;;;;;;;;;5048615;28;20037;-63
2023/03/18 13:10:21;;;;;;;10.30;6.07;;;;;;;;;;5050333;28;20475;-63
2023/03/18 13:12:48;;;;;;;8.43;6.20;;;;;;;;;;5051612;28;20123;-62
2023/03/18 13:15:33;;;;;;;10.07;7.37;;;;;;;;;;5046848;28;20048;-62
2023/03/18 13:18:04;;;;;;;8.23;5.63;;;;;;;;;;5049643;28;20155;-62
2023/03/18 13:20:33;;;;;;;8.23;6.27;;;;;;;;;;5048453;28;20127;-62
2023/03/18 13:22:59;;;;;;;8.60;6.77;;;;;;;;;;5049349;28;20049;-62
2023/03/18 13:25:39;;;;;;;11.03;6.60;;;;;;;;;;5048919;28;20045;-62
2023/03/18 13:28:24;;;;;;;8.63;6.73;;;;;;;;;;5049982;28;20049;-62
2023/03/18 13:31:08;;;;;;;8.50;5.07;;;;;;;;;;5049109;28;20047;-62
2023/03/18 13:33:52;;;;;;;9.47;5.83;;;;;;;;;;5029766;28;20124;-63
2023/03/18 13:36:39;;;;;;;8.80;4.90;;;;;;;;;;5029672;28;20538;-62
2023/03/18 13:39:08;;;;;;;6.43;3.97;;;;;;;;;;5048658;28;20099;-62
2023/03/18 13:41:53;;;;;;;7.07;4.13;;;;;;;;;;5049335;28;20057;-62
2023/03/18 13:44:23;;;;;;;8.63;4.80;;;;;;;;;;5048306;28;20045;-62
2023/03/18 13:47:01;;;;;;;8.73;4.37;;;;;;;;;;5049435;28;20053;-62
2023/03/18 13:49:29;;;;;;;5.10;3.87;;;;;;;;;;5049102;28;20044;-62
2023/03/18 13:51:59;;;;;;;5.27;4.20;;;;;;;;;;5049108;28;20048;-62
2023/03/18 13:54:35;;;;;;;6.70;3.60;;;;;;;;;;5049218;28;20053;-61
2023/03/18 13:57:30;;;;;;;7.50;4.20;;;;;;;;;;5047002;28;20041;-62
2023/03/18 14:00:22;;;;;;;5.90;3.20;;;;;;;;;;5049202;28;20045;-62
2023/03/18 14:03:00;;;;;;;4.90;3.60;;;;;;;;;;5049455;28;20400;-62
2023/03/18 14:05:32;;;;;;;7.07;3.70;;;;;;;;;;5049155;28;20098;-61
2023/03/18 14:07:59;;;;;;;5.77;3.67;;;;;;;;;;5048535;28;20049;-62
2023/03/18 14:10:25;;;;;;;6.77;3.87;;;;;;;;;;5048958;28;20076;-62
2023/03/18 14:12:51;;;;;;;5.23;3.80;;;;;;;;;;5048984;28;20033;-62
2023/03/18 14:15:23;;;;;;;11.70;4.80;;;;;;;;;;5048472;28;20086;-62
2023/03/18 14:17:55;;;;;;;7.07;4.50;;;;;;;;;;5048883;28;20049;-61
2023/03/18 14:20:26;;;;;;;5.73;4.77;;;;;;;;;;5048931;28;20309;-62
2023/03/18 14:22:53;;;;;;;7.17;4.33;;;;;;;;;;5048904;28;20509;-62
2023/03/18 14:25:38;;;;;;;8.53;4.60;;;;;;;;;;5048883;28;20098;-62
2023/03/18 14:28:08;;;;;;;7.30;4.40;;;;;;;;;;5048792;28;20049;-61
2023/03/18 14:30:34;;;;;;;8.30;3.97;;;;;;;;;;5048574;28;20521;-62
2023/03/18 14:33:26;;;;;;;8.30;4.70;;;;;;;;;;5048756;28;20041;-62
2023/03/18 14:35:58;;;;;;;7.37;4.23;;;;;;;;;;5048349;28;20053;-61
2023/03/18 14:38:27;;;;;;;4.93;3.80;;;;;;;;;;5048611;28;20041;-62